Time;durP1;ratioP1;P1;durP2;ratioP2;P2;SDS_P1;SDS_P2;PMS_P1;PMS_P2;Temp;Humidity;BMP_temperature;BMP_pressure;BME280_temperature;BME280_humidity;BME280_pressure;Samples;Min_cycle;Max_cycle;Signal;HPM_P1;HPM_P2
2022/10/26 00:00:22;;;;;;;;;;;;;;;;;;6235040;22;19918;-86
2022/10/26 00:02:48;;;;;;;;;;;;;;;;;;6287934;22;19922;-87
2022/10/26 00:05:14;;;;;;;;;;;;;;;;;;6236110;22;19919;-86
2022/10/26 00:07:40;;;;;;;;;;;;;;;;;;6238030;22;19951;-86
2022/10/26 00:10:06;;;;;;;;;;;;;;;;;;6237203;22;20235;-87
2022/10/26 00:12:34;;;;;;;;;;;;;;;;;;6264559;22;20240;-86
2022/10/26 00:15:04;;;;;;;;;;;;;;;;;;6265032;22;19945;-86
2022/10/26 00:17:29;;;;;;;;;;;;;;;;;;6240619;22;19937;-87
2022/10/26 00:19:56;;;;;;;;;;;;;;;;;;6239858;22;20427;-86
2022/10/26 00:22:22;;;;;;;;;;;;;;;;;;6233010;22;19919;-86
2022/10/26 00:24:48;;;;;;;;;;;;;;;;;;6233882;22;19919;-86
2022/10/26 00:27:14;;;;;;;;;;;;;;;;;;6235068;22;19958;-86
2022/10/26 00:29:40;;;;;;;;;;;;;;;;;;6238624;22;20231;-86
2022/10/26 00:32:06;;;;;;;;;;;;;;;;;;6235742;22;19993;-87
2022/10/26 00:34:32;;;;;;;;;;;;;;;;;;6238368;22;20005;-86
2022/10/26 00:36:58;;;;;;;;;;;;;;;;;;6264292;22;19919;-87
2022/10/26 00:39:24;;;;;;;;;;;;;;;;;;6236027;22;20213;-87
2022/10/26 00:41:50;;;;;;;;;;;;;;;;;;6237295;22;19919;-86
2022/10/26 00:44:16;;;;;;;;;;;;;;;;;;6233376;22;19927;-86
2022/10/26 00:46:42;;;;;;;;;;;;;;;;;;6260152;22;20236;-86
2022/10/26 00:49:08;;;;;;;;;;;;;;;;;;6230801;22;19918;-87
2022/10/26 00:51:34;;;;;;;;;;;;;;;;;;6237821;22;19925;-86
2022/10/26 00:54:00;;;;;;;;;;;;;;;;;;6262739;22;19926;-86
2022/10/26 00:56:29;;;;;;;;;;;;;;;;;;6264844;22;20001;-86
2022/10/26 00:58:55;;;;;;;;;;;;;;;;;;6261913;22;19954;-86
2022/10/26 01:01:21;;;;;;;;;;;;;;;;;;6232561;22;20360;-87
2022/10/26 01:03:47;;;;;;;;;;;;;;;;;;6235584;22;19919;-86
2022/10/26 01:06:13;;;;;;;;;;;;;;;;;;6258367;22;20393;-86
2022/10/26 01:08:39;;;;;;;;;;;;;;;;;;6263063;22;19992;-86
2022/10/26 01:11:05;;;;;;;;;;;;;;;;;;6234820;22;20302;-87
2022/10/26 01:13:31;;;;;;;;;;;;;;;;;;6261135;22;20557;-87
2022/10/26 01:15:57;;;;;;;;;;;;;;;;;;6237479;22;19923;-86
2022/10/26 01:18:23;;;;;;;;;;;;;;;;;;6234789;22;19919;-86
2022/10/26 01:20:49;;;;;;;;;;;;;;;;;;6235614;22;20318;-87
2022/10/26 01:23:15;;;;;;;;;;;;;;;;;;6233881;22;19989;-86
2022/10/26 01:25:41;;;;;;;;;;;;;;;;;;6237671;22;19918;-86
2022/10/26 01:28:07;;;;;;;;;;;;;;;;;;6234899;22;19972;-87
2022/10/26 01:30:33;;;;;;;;;;;;;;;;;;6237181;22;19919;-87
2022/10/26 01:32:59;;;;;;;;;;;;;;;;;;6236095;22;20282;-87
2022/10/26 01:35:25;;;;;;;;;;;;;;;;;;6261027;22;19918;-87
2022/10/26 01:37:51;;;;;;;;;;;;;;;;;;6263405;22;19925;-86
2022/10/26 01:40:17;;;;;;;;;;;;;;;;;;6234062;22;19925;-87
2022/10/26 01:42:43;;;;;;;;;;;;;;;;;;6237998;22;19919;-86
2022/10/26 01:45:11;;;;;;;;;;;;;;;;;;6232764;22;19945;-87
2022/10/26 01:47:37;;;;;;;;;;;;;;;;;;6263614;22;20294;-86
2022/10/26 01:50:03;;;;;;;;;;;;;;;;;;6230542;22;19918;-86
2022/10/26 01:52:29;;;;;;;;;;;;;;;;;;6234623;22;19942;-87
2022/10/26 01:54:55;;;;;;;;;;;;;;;;;;6262759;22;20445;-86
2022/10/26 01:57:21;;;;;;;;;;;;;;;;;;6259854;22;20373;-86
2022/10/26 01:59:47;;;;;;;;;;;;;;;;;;6236731;22;19919;-86
2022/10/26 02:02:13;;;;;;;;;;;;;;;;;;6234842;22;19957;-86
2022/10/26 02:04:39;;;;;;;;;;;;;;;;;;6239532;22;20362;-86
2022/10/26 02:07:05;;;;;;;;;;;;;;;;;;6259344;22;19922;-86
2022/10/26 02:09:31;;;;;;;;;;;;;;;;;;6263456;22;19985;-87
2022/10/26 02:11:57;;;;;;;;;;;;;;;;;;6235913;22;19918;-86
2022/10/26 02:14:23;;;;;;;;;;;;;;;;;;6233740;22;19919;-87
2022/10/26 02:16:48;;;;;;;;;;;;;;;;;;6262359;22;19915;-86
2022/10/26 02:19:14;;;;;;;;;;;;;;;;;;6258978;22;20468;-87
2022/10/26 02:21:40;;;;;;;;;;;;;;;;;;6239202;22;20288;-87
2022/10/26 02:24:06;;;;;;;;;;;;;;;;;;6237763;22;19967;-86
2022/10/26 02:26:32;;;;;;;;;;;;;;;;;;6267915;22;20378;-86
2022/10/26 02:28:58;;;;;;;;;;;;;;;;;;6268219;22;19919;-87
2022/10/26 02:31:24;;;;;;;;;;;;;;;;;;6262555;22;19929;-87
2022/10/26 02:33:50;;;;;;;;;;;;;;;;;;6265897;22;20362;-86
2022/10/26 02:36:16;;;;;;;;;;;;;;;;;;6263162;22;19919;-86
2022/10/26 02:38:42;;;;;;;;;;;;;;;;;;6241677;22;19989;-87
2022/10/26 02:41:09;;;;;;;;;;;;;;;;;;6261894;22;20618;-87
2022/10/26 02:43:34;;;;;;;;;;;;;;;;;;6241301;22;19925;-87
2022/10/26 02:46:04;;;;;;;;;;;;;;;;;;6235909;22;19923;-86
2022/10/26 02:48:30;;;;;;;;;;;;;;;;;;6293429;22;19993;-87
2022/10/26 02:50:55;;;;;;;;;;;;;;;;;;6262076;22;20624;-87
2022/10/26 02:53:21;;;;;;;;;;;;;;;;;;6238215;22;20311;-87
2022/10/26 02:55:47;;;;;;;;;;;;;;;;;;6240691;22;20007;-86
2022/10/26 02:58:13;;;;;;;;;;;;;;;;;;6237652;22;19918;-87
2022/10/26 03:00:39;;;;;;;;;;;;;;;;;;6235992;22;19984;-87
2022/10/26 03:03:05;;;;;;;;;;;;;;;;;;6236818;22;19923;-87
2022/10/26 03:05:31;;;;;;;;;;;;;;;;;;6266454;22;20002;-86
2022/10/26 03:07:57;;;;;;;;;;;;;;;;;;6239954;22;20002;-87
2022/10/26 03:10:23;;;;;;;;;;;;;;;;;;6235355;22;19962;-86
2022/10/26 03:12:49;;;;;;;;;;;;;;;;;;6241297;22;20433;-86
2022/10/26 03:15:15;;;;;;;;;;;;;;;;;;6263691;22;19923;-87
2022/10/26 03:17:41;;;;;;;;;;;;;;;;;;6238472;22;19926;-86
2022/10/26 03:20:07;;;;;;;;;;;;;;;;;;6238987;22;20056;-87
2022/10/26 03:22:33;;;;;;;;;;;;;;;;;;6295090;22;19925;-87
2022/10/26 03:24:59;;;;;;;;;;;;;;;;;;6240508;22;19919;-87
2022/10/26 03:27:26;;;;;;;;;;;;;;;;;;6263262;22;19923;-87
2022/10/26 03:29:52;;;;;;;;;;;;;;;;;;6266378;22;19926;-87
2022/10/26 03:32:18;;;;;;;;;;;;;;;;;;6236902;22;19968;-85
2022/10/26 03:34:43;;;;;;;;;;;;;;;;;;6242005;22;19915;-86
2022/10/26 03:37:09;;;;;;;;;;;;;;;;;;6238552;22;19919;-86
2022/10/26 03:39:35;;;;;;;;;;;;;;;;;;6266179;22;19926;-85
2022/10/26 03:42:01;;;;;;;;;;;;;;;;;;6236720;22;19994;-86
2022/10/26 03:44:27;;;;;;;;;;;;;;;;;;6240040;22;19998;-87
2022/10/26 03:46:53;;;;;;;;;;;;;;;;;;6240310;22;19998;-86
2022/10/26 03:49:19;;;;;;;;;;;;;;;;;;6236384;22;19946;-87
2022/10/26 03:51:45;;;;;;;;;;;;;;;;;;6239499;22;19926;-86
2022/10/26 03:54:11;;;;;;;;;;;;;;;;;;6237730;22;19919;-86
2022/10/26 03:56:37;;;;;;;;;;;;;;;;;;6241778;22;20163;-86
2022/10/26 03:59:03;;;;;;;;;;;;;;;;;;6266670;22;19997;-86
2022/10/26 04:01:29;;;;;;;;;;;;;;;;;;6240494;22;20009;-86
2022/10/26 04:03:55;;;;;;;;;;;;;;;;;;6242061;22;19914;-86
2022/10/26 04:06:21;;;;;;;;;;;;;;;;;;6238639;22;20260;-86
2022/10/26 04:08:47;;;;;;;;;;;;;;;;;;6240247;22;19954;-86
2022/10/26 04:11:13;;;;;;;;;;;;;;;;;;6238406;22;19919;-86
2022/10/26 04:13:39;;;;;;;;;;;;;;;;;;6265653;22;19922;-87
2022/10/26 04:16:05;;;;;;;;;;;;;;;;;;6262588;22;19967;-86
2022/10/26 04:18:31;;;;;;;;;;;;;;;;;;6295392;22;19926;-86
2022/10/26 04:20:57;;;;;;;;;;;;;;;;;;6237637;22;20351;-86
2022/10/26 04:23:23;;;;;;;;;;;;;;;;;;6261102;22;19919;-87
2022/10/26 04:25:49;;;;;;;;;;;;;;;;;;6237133;22;19919;-87
2022/10/26 04:28:15;;;;;;;;;;;;;;;;;;6261342;22;19929;-86
2022/10/26 04:30:41;;;;;;;;;;;;;;;;;;6290138;22;19919;-86
2022/10/26 04:33:07;;;;;;;;;;;;;;;;;;6237379;22;20315;-87
2022/10/26 04:35:33;;;;;;;;;;;;;;;;;;6240997;22;20387;-86
2022/10/26 04:37:59;;;;;;;;;;;;;;;;;;6264824;22;19918;-86
2022/10/26 04:40:25;;;;;;;;;;;;;;;;;;6235069;22;19930;-86
2022/10/26 04:42:51;;;;;;;;;;;;;;;;;;6260163;22;20395;-86
2022/10/26 04:45:17;;;;;;;;;;;;;;;;;;6236190;22;19944;-86
2022/10/26 04:47:43;;;;;;;;;;;;;;;;;;6239011;22;19923;-86
2022/10/26 04:50:09;;;;;;;;;;;;;;;;;;6235061;22;20343;-86
2022/10/26 04:52:35;;;;;;;;;;;;;;;;;;6234354;22;19925;-87
2022/10/26 04:55:06;;;;;;;;;;;;;;;;;;6258379;22;19926;-86
2022/10/26 04:57:35;;;;;;;;;;;;;;;;;;6237626;22;19922;-87
2022/10/26 05:00:04;;;;;;;;;;;;;;;;;;6263025;22;20352;-87
2022/10/26 05:02:30;;;;;;;;;;;;;;;;;;6259271;22;20329;-87
2022/10/26 05:04:56;;;;;;;;;;;;;;;;;;6237200;22;20002;-87
2022/10/26 05:07:22;;;;;;;;;;;;;;;;;;6233047;22;20517;-88
2022/10/26 05:09:48;;;;;;;;;;;;;;;;;;6238849;22;19915;-88
2022/10/26 05:12:14;;;;;;;;;;;;;;;;;;6233776;22;20373;-87
2022/10/26 05:14:40;;;;;;;;;;;;;;;;;;6262517;22;19922;-86
2022/10/26 05:17:06;;;;;;;;;;;;;;;;;;6262349;22;20416;-86
2022/10/26 05:19:32;;;;;;;;;;;;;;;;;;6268629;22;19950;-86
2022/10/26 05:21:57;;;;;;;;;;;;;;;;;;6241176;22;19919;-86
2022/10/26 05:24:23;;;;;;;;;;;;;;;;;;6234654;22;19915;-86
2022/10/26 05:26:49;;;;;;;;;;;;;;;;;;6262263;22;19991;-86
2022/10/26 05:29:15;;;;;;;;;;;;;;;;;;6237220;22;20271;-86
2022/10/26 05:31:41;;;;;;;;;;;;;;;;;;6264532;22;19915;-86
2022/10/26 05:34:07;;;;;;;;;;;;;;;;;;6235538;22;19925;-86
2022/10/26 05:36:33;;;;;;;;;;;;;;;;;;6265553;22;20332;-86
2022/10/26 05:38:59;;;;;;;;;;;;;;;;;;6263936;22;19955;-86
2022/10/26 05:41:25;;;;;;;;;;;;;;;;;;6261777;22;19923;-86
2022/10/26 05:43:51;;;;;;;;;;;;;;;;;;6264505;22;19919;-86
2022/10/26 05:46:17;;;;;;;;;;;;;;;;;;6262525;22;20130;-86
2022/10/26 05:48:43;;;;;;;;;;;;;;;;;;6263944;22;20350;-86
2022/10/26 05:51:11;;;;;;;;;;;;;;;;;;6262408;22;19946;-86
2022/10/26 05:53:37;;;;;;;;;;;;;;;;;;6265251;22;19914;-86
2022/10/26 05:56:03;;;;;;;;;;;;;;;;;;6253437;22;19992;-86
2022/10/26 05:58:29;;;;;;;;;;;;;;;;;;6288544;22;19923;-86
2022/10/26 06:00:55;;;;;;;;;;;;;;;;;;6236232;22;19915;-86
2022/10/26 06:03:21;;;;;;;;;;;;;;;;;;6262854;22;19957;-86
2022/10/26 06:05:47;;;;;;;;;;;;;;;;;;6238040;22;19926;-87
2022/10/26 06:08:12;;;;;;;;;;;;;;;;;;6234935;22;19946;-87
2022/10/26 06:10:38;;;;;;;;;;;;;;;;;;6231749;22;19919;-86
2022/10/26 06:13:04;;;;;;;;;;;;;;;;;;6223775;22;20331;-87
2022/10/26 06:15:30;;;;;;;;;;;;;;;;;;6233149;22;19925;-87
2022/10/26 06:17:56;;;;;;;;;;;;;;;;;;6235912;22;19918;-87
2022/10/26 06:20:22;;;;;;;;;;;;;;;;;;6225562;22;20029;-87
2022/10/26 06:26:15;;;;;;;;;;;;;;;;;;6249604;22;19915;-87
2022/10/26 06:31:42;;;;;;;;;;;;;;;;;;6118309;23;20506;-87
2022/10/26 06:42:49;;;;;;;;;;;;;;;;;;6300953;22;20258;-88
2022/10/26 06:49:09;;;;;;;;;;;;;;;;;;;;;
2022/10/26 06:54:50;;;;;;;;;;;;;;;;;;6276270;22;19918;-87
2022/10/26 07:00:47;;;;;;;;;;;;;;;;;;6220715;22;19919;-85
2022/10/26 07:03:13;;;;;;;;;;;;;;;;;;6242727;22;19919;-86
2022/10/26 07:05:39;;;;;;;;;;;;;;;;;;6246335;22;19923;-87
2022/10/26 07:08:05;;;;;;;;;;;;;;;;;;6243197;22;19919;-87
2022/10/26 07:10:33;;;;;;;;;;;;;;;;;;6241273;22;20401;-87
2022/10/26 07:12:59;;;;;;;;;;;;;;;;;;6247717;22;19921;-87
2022/10/26 07:15:25;;;;;;;;;;;;;;;;;;6243640;22;19954;-87
2022/10/26 07:17:51;;;;;;;;;;;;;;;;;;6245690;22;19930;-87
2022/10/26 07:20:17;;;;;;;;;;;;;;;;;;6241981;22;20315;-87
2022/10/26 07:22:43;;;;;;;;;;;;;;;;;;6245881;22;19919;-87
2022/10/26 07:25:11;;;;;;;;;;;;;;;;;;6267744;22;19923;-87
2022/10/26 07:27:37;;;;;;;;;;;;;;;;;;6248402;22;20366;-87
2022/10/26 07:30:03;;;;;;;;;;;;;;;;;;6267254;22;19919;-87
2022/10/26 07:32:29;;;;;;;;;;;;;;;;;;6245918;22;19918;-87
2022/10/26 07:34:57;;;;;;;;;;;;;;;;;;6271762;22;19938;-87
2022/10/26 07:37:23;;;;;;;;;;;;;;;;;;6243090;22;19919;-87
2022/10/26 07:39:49;;;;;;;;;;;;;;;;;;6244813;22;19915;-87
2022/10/26 07:42:15;;;;;;;;;;;;;;;;;;6243081;22;19922;-87
2022/10/26 07:44:41;;;;;;;;;;;;;;;;;;6297033;22;19929;-87
2022/10/26 07:47:07;;;;;;;;;;;;;;;;;;6273113;22;19960;-87
2022/10/26 07:49:33;;;;;;;;;;;;;;;;;;6301662;22;19922;-87
2022/10/26 07:51:59;;;;;;;;;;;;;;;;;;6277904;22;19918;-87
2022/10/26 07:54:25;;;;;;;;;;;;;;;;;;6273461;22;19979;-87
2022/10/26 07:56:51;;;;;;;;;;;;;;;;;;6274916;22;19930;-87
2022/10/26 07:59:20;;;;;;;;;;;;;;;;;;6272576;22;19922;-88
2022/10/26 08:01:46;;;;;;;;;;;;;;;;;;6276787;22;19914;-87
2022/10/26 08:04:12;;;;;;;;;;;;;;;;;;6273472;22;20232;-88
2022/10/26 08:06:37;;;;;;;;;;;;;;;;;;6276658;22;19914;-87
2022/10/26 08:09:03;;;;;;;;;;;;;;;;;;6272760;22;19922;-88
2022/10/26 08:11:29;;;;;;;;;;;;;;;;;;6275351;22;20231;-88
2022/10/26 08:13:55;;;;;;;;;;;;;;;;;;6301305;22;19944;-88
2022/10/26 08:16:21;;;;;;;;;;;;;;;;;;6296408;22;20357;-88
2022/10/26 08:18:48;;;;;;;;;;;;;;;;;;6303061;22;19914;-88
2022/10/26 08:21:14;;;;;;;;;;;;;;;;;;6300860;22;20331;-88
2022/10/26 08:23:39;;;;;;;;;;;;;;;;;;6276124;22;19930;-88
2022/10/26 08:26:05;;;;;;;;;;;;;;;;;;6272490;22;19939;-88
2022/10/26 08:28:31;;;;;;;;;;;;;;;;;;6301361;22;19998;-87
2022/10/26 08:30:57;;;;;;;;;;;;;;;;;;6300548;22;19958;-88
2022/10/26 08:33:23;;;;;;;;;;;;;;;;;;6297684;22;20319;-87
2022/10/26 08:35:49;;;;;;;;;;;;;;;;;;6274636;22;19993;-88
2022/10/26 08:38:15;;;;;;;;;;;;;;;;;;6298680;22;20013;-88
2022/10/26 08:40:44;;;;;;;;;;;;;;;;;;6300449;22;19961;-88
2022/10/26 08:43:13;;;;;;;;;;;;;;;;;;6298532;22;19922;-88
2022/10/26 08:45:39;;;;;;;;;;;;;;;;;;6302350;22;19922;-88
2022/10/26 08:48:05;;;;;;;;;;;;;;;;;;6274801;22;20040;-88
2022/10/26 08:50:31;;;;;;;;;;;;;;;;;;6275177;22;19950;-88
2022/10/26 08:53:01;;;;;;;;;;;;;;;;;;6274582;22;19938;-88
2022/10/26 08:55:27;;;;;;;;;;;;;;;;;;6273729;22;19918;-88
2022/10/26 08:57:53;;;;;;;;;;;;;;;;;;6273630;22;20228;-88
2022/10/26 09:00:19;;;;;;;;;;;;;;;;;;6271848;22;19937;-88
2022/10/26 09:02:45;;;;;;;;;;;;;;;;;;6275343;22;19918;-88
2022/10/26 09:05:11;;;;;;;;;;;;;;;;;;6272770;22;20312;-88
2022/10/26 09:07:37;;;;;;;;;;;;;;;;;;6272639;22;19915;-88
2022/10/26 09:10:03;;;;;;;;;;;;;;;;;;6297095;22;20358;-88
2022/10/26 09:12:29;;;;;;;;;;;;;;;;;;6302651;22;19921;-88
2022/10/26 09:14:55;;;;;;;;;;;;;;;;;;6276789;22;19914;-89
2022/10/26 09:17:21;;;;;;;;;;;;;;;;;;6301135;22;20722;-89
2022/10/26 09:19:47;;;;;;;;;;;;;;;;;;6276519;22;19921;-88
2022/10/26 09:22:15;;;;;;;;;;;;;;;;;;6298783;22;19919;-88
2022/10/26 09:24:42;;;;;;;;;;;;;;;;;;6301681;22;19931;-89
2022/10/26 09:27:08;;;;;;;;;;;;;;;;;;6273389;22;19922;-89
2022/10/26 09:29:34;;;;;;;;;;;;;;;;;;6275736;22;19997;-88
2022/10/26 09:32:02;;;;;;;;;;;;;;;;;;6274772;22;20003;-88
2022/10/26 09:34:28;;;;;;;;;;;;;;;;;;6276012;22;19999;-89
2022/10/26 09:36:55;;;;;;;;;;;;;;;;;;6275386;22;19918;-89
2022/10/26 09:39:21;;;;;;;;;;;;;;;;;;6273530;22;19989;-88
2022/10/26 09:41:47;;;;;;;;;;;;;;;;;;6330366;22;19918;-89
2022/10/26 09:44:13;;;;;;;;;;;;;;;;;;6300877;22;20306;-88
2022/10/26 09:46:39;;;;;;;;;;;;;;;;;;6275214;22;19961;-89
2022/10/26 09:49:08;;;;;;;;;;;;;;;;;;6271818;22;20237;-89
2022/10/26 09:51:34;;;;;;;;;;;;;;;;;;6275288;22;19982;-89
2022/10/26 09:54:03;;;;;;;;;;;;;;;;;;6276689;22;20417;-89
2022/10/26 09:56:29;;;;;;;;;;;;;;;;;;6275126;22;19915;-89
2022/10/26 09:58:58;;;;;;;;;;;;;;;;;;6298930;22;20243;-89
2022/10/26 10:01:27;;;;;;;;;;;;;;;;;;6297148;22;19997;-89
2022/10/26 10:03:56;;;;;;;;;;;;;;;;;;6276053;22;20288;-89
2022/10/26 10:06:22;;;;;;;;;;;;;;;;;;6272341;22;20348;-89
2022/10/26 10:08:51;;;;;;;;;;;;;;;;;;6300721;22;19963;-90
2022/10/26 10:11:20;;;;;;;;;;;;;;;;;;6273340;22;19925;-89
2022/10/26 10:13:46;;;;;;;;;;;;;;;;;;6328529;22;19925;-90
2022/10/26 10:16:12;;;;;;;;;;;;;;;;;;6272909;22;19914;-90
2022/10/26 10:18:38;;;;;;;;;;;;;;;;;;6275766;22;19918;-90
2022/10/26 10:21:07;;;;;;;;;;;;;;;;;;6273080;22;19918;-90
2022/10/26 10:23:35;;;;;;;;;;;;;;;;;;6301595;22;19918;-91
2022/10/26 10:26:01;;;;;;;;;;;;;;;;;;6274811;22;19933;-90
2022/10/26 10:28:32;;;;;;;;;;;;;;;;;;6274228;22;19918;-90
2022/10/26 10:33:51;;;;;;;;;;;;;;;;;;6301367;22;19918;-90
2022/10/26 10:36:18;;;;;;;;;;;;;;;;;;6272617;22;19963;-91
2022/10/26 10:38:50;;;;;;;;;;;;;;;;;;6273819;22;20255;-91
2022/10/26 10:41:16;;;;;;;;;;;;;;;;;;6273715;22;19977;-90
2022/10/26 10:43:42;;;;;;;;;;;;;;;;;;6270584;22;19969;-91
2022/10/26 10:46:10;;;;;;;;;;;;;;;;;;6265707;22;20228;-90
2022/10/26 10:48:39;;;;;;;;;;;;;;;;;;6296342;22;19919;-90
2022/10/26 10:51:11;;;;;;;;;;;;;;;;;;6269105;22;20324;-90
2022/10/26 10:53:37;;;;;;;;;;;;;;;;;;6297144;22;19918;-90
2022/10/26 10:56:03;;;;;;;;;;;;;;;;;;6267674;22;19946;-90
2022/10/26 10:58:29;;;;;;;;;;;;;;;;;;6268231;22;20278;-90
2022/10/26 11:01:06;;;;;;;;;;;;;;;;;;6270285;22;19938;-90
2022/10/26 11:03:34;;;;;;;;;;;;;;;;;;6268332;22;20324;-90
2022/10/26 11:06:06;;;;;;;;;;;;;;;;;;6269048;22;20221;-91
2022/10/26 11:08:32;;;;;;;;;;;;;;;;;;6296074;22;19915;-90
2022/10/26 11:11:07;;;;;;;;;;;;;;;;;;6268855;22;20306;-90
2022/10/26 11:13:33;;;;;;;;;;;;;;;;;;6271534;22;19915;-90
2022/10/26 11:16:04;;;;;;;;;;;;;;;;;;6292910;22;20364;-90
2022/10/26 11:18:30;;;;;;;;;;;;;;;;;;6271421;22;20338;-90
2022/10/26 11:21:04;;;;;;;;;;;;;;;;;;6269765;22;19919;-91
2022/10/26 11:23:33;;;;;;;;;;;;;;;;;;6295269;22;19919;-90
2022/10/26 11:25:59;;;;;;;;;;;;;;;;;;6294956;22;19997;-90
2022/10/26 11:28:31;;;;;;;;;;;;;;;;;;6272429;22;19918;-90
2022/10/26 11:30:57;;;;;;;;;;;;;;;;;;6272336;22;19914;-91
2022/10/26 11:33:26;;;;;;;;;;;;;;;;;;6271142;22;19919;-91
2022/10/26 11:35:55;;;;;;;;;;;;;;;;;;6298094;22;19926;-90
2022/10/26 11:38:24;;;;;;;;;;;;;;;;;;6270428;22;19918;-91
2022/10/26 11:40:55;;;;;;;;;;;;;;;;;;6296818;22;19997;-91
2022/10/26 11:43:29;;;;;;;;;;;;;;;;;;6268207;22;19994;-91
2022/10/26 11:46:10;;;;;;;;;;;;;;;;;;6291609;22;19923;-91
2022/10/26 11:48:37;;;;;;;;;;;;;;;;;;6272432;22;19961;-90
2022/10/26 11:51:09;;;;;;;;;;;;;;;;;;6268952;22;19926;-90
2022/10/26 11:53:37;;;;;;;;;;;;;;;;;;6272262;22;20014;-90
2022/10/26 11:56:03;;;;;;;;;;;;;;;;;;6295670;22;19926;-91
2022/10/26 11:58:32;;;;;;;;;;;;;;;;;;6298101;22;20005;-90
2022/10/26 12:00:58;;;;;;;;;;;;;;;;;;6296392;22;20356;-91
2022/10/26 12:03:30;;;;;;;;;;;;;;;;;;6268093;22;19923;-91
2022/10/26 12:05:59;;;;;;;;;;;;;;;;;;6271724;22;19922;-90
2022/10/26 12:08:28;;;;;;;;;;;;;;;;;;6294811;22;19982;-90
2022/10/26 12:10:57;;;;;;;;;;;;;;;;;;6272018;22;19919;-91
2022/10/26 12:13:32;;;;;;;;;;;;;;;;;;6268747;22;19926;-91
2022/10/26 12:16:07;;;;;;;;;;;;;;;;;;6271435;22;20336;-91
2022/10/26 12:18:33;;;;;;;;;;;;;;;;;;6272481;22;19986;-90
2022/10/26 12:21:02;;;;;;;;;;;;;;;;;;6269810;22;19921;-90
2022/10/26 12:23:31;;;;;;;;;;;;;;;;;;6296990;22;19984;-91
2022/10/26 12:26:02;;;;;;;;;;;;;;;;;;6298004;22;19922;-91
2022/10/26 12:28:47;;;;;;;;;;;;;;;;;;6271684;22;19958;-90
2022/10/26 12:31:17;;;;;;;;;;;;;;;;;;6265675;22;20264;-91
2022/10/26 12:33:43;;;;;;;;;;;;;;;;;;6270089;22;19915;-92
2022/10/26 12:36:23;;;;;;;;;;;;;;;;;;6266540;22;19942;-91
2022/10/26 12:38:56;;;;;;;;;;;;;;;;;;6296956;22;20243;-90
2022/10/26 12:41:28;;;;;;;;;;;;;;;;;;6293473;22;20225;-91
2022/10/26 12:43:56;;;;;;;;;;;;;;;;;;6270675;22;19973;-91
2022/10/26 12:46:22;;;;;;;;;;;;;;;;;;6267212;22;20761;-91
2022/10/26 12:49:02;;;;;;;;;;;;;;;;;;6273168;22;19918;-92
2022/10/26 12:51:33;;;;;;;;;;;;;;;;;;6269143;22;19919;-92
2022/10/26 12:54:23;;;;;;;;;;;;;;;;;;6267893;22;20298;-91
2022/10/26 12:57:00;;;;;;;;;;;;;;;;;;6295470;22;19925;-91
2022/10/26 13:05:18;;;;;;;;;;;;;;;;;;6329110;22;20264;-91
2022/10/26 13:07:47;;;;;;;;;;;;;;;;;;6298003;22;20008;-89
2022/10/26 13:10:13;;;;;;;;;;;;;;;;;;6293886;22;19918;-88
2022/10/26 13:19:05;;;;;;;;;;;;;;;;;;;;;
2022/10/26 13:37:31;;;;;;;;;;;;;;;;;;6292503;22;19922;-87
2022/10/26 13:39:58;;;;;;;;;;;;;;;;;;6264607;22;19926;-89
2022/10/26 13:42:24;;;;;;;;;;;;;;;;;;6266084;22;19930;-89
2022/10/26 13:44:50;;;;;;;;;;;;;;;;;;6265858;22;19927;-88
2022/10/26 13:47:16;;;;;;;;;;;;;;;;;;6264651;22;19919;-88
2022/10/26 13:49:48;;;;;;;;;;;;;;;;;;6265391;22;19996;-89
2022/10/26 13:52:14;;;;;;;;;;;;;;;;;;6261557;22;19985;-91
2022/10/26 13:54:46;;;;;;;;;;;;;;;;;;6254991;22;19929;-90
2022/10/26 13:57:15;;;;;;;;;;;;;;;;;;6206003;22;19923;-92
2022/10/26 13:59:41;;;;;;;;;;;;;;;;;;6206005;22;19919;-88
2022/10/26 14:28:15;;;;;;;;;;;;;;;;;;6315478;22;19923;-88
2022/10/26 14:30:41;;;;;;;;;;;;;;;;;;6289504;22;19987;-88
2022/10/26 14:48:42;;;;;;;;;;;;;;;;;;6261693;22;20010;-89
2022/10/26 14:51:08;;;;;;;;;;;;;;;;;;6256354;22;19926;-89
2022/10/26 14:53:34;;;;;;;;;;;;;;;;;;6256736;22;19926;-89
2022/10/26 14:56:00;;;;;;;;;;;;;;;;;;6230292;22;19919;-89
2022/10/26 14:58:26;;;;;;;;;;;;;;;;;;6195543;23;20399;-90
2022/10/26 15:00:57;;;;;;;;;;;;;;;;;;6204036;23;19920;-90
2022/10/26 15:03:30;;;;;;;;;;;;;;;;;;6223159;23;20350;-89
2022/10/26 15:06:07;;;;;;;;;;;;;;;;;;6226246;23;20425;-93
2022/10/26 15:08:36;;;;;;;;;;;;;;;;;;6199831;23;19927;-89
2022/10/26 15:11:09;;;;;;;;;;;;;;;;;;6197265;23;20435;-89
2022/10/26 15:13:38;;;;;;;;;;;;;;;;;;6202181;23;19965;-89
2022/10/26 15:16:04;;;;;;;;;;;;;;;;;;6197881;23;19920;-90
2022/10/26 15:18:30;;;;;;;;;;;;;;;;;;6202994;23;20378;-89
2022/10/26 15:20:59;;;;;;;;;;;;;;;;;;6207222;23;20020;-89
2022/10/26 15:23:28;;;;;;;;;;;;;;;;;;6227890;23;19919;-89
2022/10/26 15:25:54;;;;;;;;;;;;;;;;;;6200071;23;19923;-89
2022/10/26 15:28:20;;;;;;;;;;;;;;;;;;6200599;23;19919;-89
2022/10/26 15:30:46;;;;;;;;;;;;;;;;;;6201465;23;19922;-89
2022/10/26 15:33:12;;;;;;;;;;;;;;;;;;6203059;23;19927;-89
2022/10/26 15:35:40;;;;;;;;;;;;;;;;;;6204708;23;19919;-90
2022/10/26 15:38:09;;;;;;;;;;;;;;;;;;6200570;23;20046;-89
2022/10/26 15:40:38;;;;;;;;;;;;;;;;;;6225424;23;19986;-89
2022/10/26 15:43:07;;;;;;;;;;;;;;;;;;6222341;23;19919;-89
2022/10/26 15:45:36;;;;;;;;;;;;;;;;;;6203552;23;20248;-89
2022/10/26 15:48:11;;;;;;;;;;;;;;;;;;6226046;22;20225;-90
2022/10/26 15:50:39;;;;;;;;;;;;;;;;;;6204509;22;20344;-90
2022/10/26 15:53:08;;;;;;;;;;;;;;;;;;6231823;22;20351;-90
2022/10/26 15:55:34;;;;;;;;;;;;;;;;;;6210936;22;19916;-90
2022/10/26 15:58:04;;;;;;;;;;;;;;;;;;6233646;22;19990;-90
2022/10/26 16:00:30;;;;;;;;;;;;;;;;;;6209637;22;20338;-90
2022/10/26 16:03:04;;;;;;;;;;;;;;;;;;6215960;22;19919;-90
2022/10/26 16:05:30;;;;;;;;;;;;;;;;;;6236273;22;20005;-90
2022/10/26 16:07:56;;;;;;;;;;;;;;;;;;6209069;22;19958;-90
2022/10/26 16:10:22;;;;;;;;;;;;;;;;;;6205872;22;19964;-90
2022/10/26 16:12:58;;;;;;;;;;;;;;;;;;6208666;22;20003;-90
2022/10/26 16:15:26;;;;;;;;;;;;;;;;;;6205039;22;19923;-90
2022/10/26 16:18:01;;;;;;;;;;;;;;;;;;6208083;22;20010;-89
2022/10/26 16:20:27;;;;;;;;;;;;;;;;;;6232823;22;20359;-91
2022/10/26 16:22:53;;;;;;;;;;;;;;;;;;6205327;22;20351;-90
2022/10/26 16:25:20;;;;;;;;;;;;;;;;;;6204131;22;20316;-90
2022/10/26 16:27:48;;;;;;;;;;;;;;;;;;6207034;22;19980;-91
2022/10/26 16:30:14;;;;;;;;;;;;;;;;;;6228904;22;19918;-90
2022/10/26 16:35:30;;;;;;;;;;;;;;;;;;6217742;22;20002;-90
2022/10/26 16:37:57;;;;;;;;;;;;;;;;;;6205973;22;19955;-90
2022/10/26 16:40:28;;;;;;;;;;;;;;;;;;6200611;22;19919;-89
2022/10/26 16:42:59;;;;;;;;;;;;;;;;;;6213391;22;20253;-89
2022/10/26 16:45:25;;;;;;;;;;;;;;;;;;6204188;22;19930;-90
2022/10/26 16:47:51;;;;;;;;;;;;;;;;;;6204523;23;19991;-90
2022/10/26 16:50:20;;;;;;;;;;;;;;;;;;6202236;23;19923;-89
2022/10/26 16:52:46;;;;;;;;;;;;;;;;;;6233097;23;19945;-90
2022/10/26 16:55:12;;;;;;;;;;;;;;;;;;6228653;22;19919;-89
2022/10/26 16:57:38;;;;;;;;;;;;;;;;;;6207879;23;20118;-90
2022/10/26 17:00:04;;;;;;;;;;;;;;;;;;6203949;23;19915;-90
2022/10/26 17:02:30;;;;;;;;;;;;;;;;;;6234309;23;20407;-89
2022/10/26 17:04:56;;;;;;;;;;;;;;;;;;6207572;23;19927;-89
2022/10/26 17:07:24;;;;;;;;;;;;;;;;;;6207281;23;20312;-90
2022/10/26 17:09:50;;;;;;;;;;;;;;;;;;6232111;23;19928;-90
2022/10/26 17:12:17;;;;;;;;;;;;;;;;;;6206797;23;19961;-89
2022/10/26 17:14:42;;;;;;;;;;;;;;;;;;6208465;23;19923;-90
2022/10/26 17:17:08;;;;;;;;;;;;;;;;;;6203334;23;20404;-90
2022/10/26 17:19:37;;;;;;;;;;;;;;;;;;6210026;23;20329;-90
2022/10/26 17:22:03;;;;;;;;;;;;;;;;;;6205963;23;19919;-90
2022/10/26 17:24:29;;;;;;;;;;;;;;;;;;6235671;23;19993;-90
2022/10/26 17:26:56;;;;;;;;;;;;;;;;;;6208307;23;19919;-89
2022/10/26 17:29:22;;;;;;;;;;;;;;;;;;6204497;23;20303;-89
2022/10/26 17:31:48;;;;;;;;;;;;;;;;;;6232884;23;19938;-90
2022/10/26 17:34:14;;;;;;;;;;;;;;;;;;6203652;23;19915;-89
2022/10/26 17:36:40;;;;;;;;;;;;;;;;;;6208853;23;19916;-90
2022/10/26 17:39:06;;;;;;;;;;;;;;;;;;6211296;23;19910;-90
2022/10/26 17:41:32;;;;;;;;;;;;;;;;;;6243375;23;20401;-89
2022/10/26 17:43:58;;;;;;;;;;;;;;;;;;6233989;23;19915;-90
2022/10/26 17:46:24;;;;;;;;;;;;;;;;;;6203993;23;19928;-90
2022/10/26 17:48:50;;;;;;;;;;;;;;;;;;6206118;23;19923;-90
2022/10/26 17:51:23;;;;;;;;;;;;;;;;;;6205807;23;19938;-91
2022/10/26 17:53:49;;;;;;;;;;;;;;;;;;6208234;22;19915;-90
2022/10/26 17:56:15;;;;;;;;;;;;;;;;;;6206307;23;19923;-90
2022/10/26 17:58:41;;;;;;;;;;;;;;;;;;6232423;23;20391;-90
2022/10/26 18:01:07;;;;;;;;;;;;;;;;;;6202800;23;19941;-90
2022/10/26 18:03:33;;;;;;;;;;;;;;;;;;6205009;23;19941;-90
2022/10/26 18:05:59;;;;;;;;;;;;;;;;;;6207831;23;19924;-89
2022/10/26 18:08:25;;;;;;;;;;;;;;;;;;6204766;23;19942;-89
2022/10/26 18:10:51;;;;;;;;;;;;;;;;;;6206643;23;19915;-89
2022/10/26 18:13:20;;;;;;;;;;;;;;;;;;6205267;23;19961;-90
2022/10/26 18:15:49;;;;;;;;;;;;;;;;;;6233715;23;19954;-90
2022/10/26 18:18:20;;;;;;;;;;;;;;;;;;6206642;23;19916;-90
2022/10/26 18:20:49;;;;;;;;;;;;;;;;;;6208915;23;19919;-90
2022/10/26 18:23:15;;;;;;;;;;;;;;;;;;6205456;23;19997;-90
2022/10/26 18:25:44;;;;;;;;;;;;;;;;;;6207917;23;19959;-90